sensor_id;sensor_type;location;lat;lon;timestamp;temperature;humidity
32749;DHT22;19119;52.474;13.710;2023-07-09T00:02:13;18.60;95.50
32749;DHT22;19119;52.474;13.710;2023-07-09T00:04:39;18.60;95.30
32749;DHT22;19119;52.474;13.710;2023-07-09T00:07:05;18.60;95.30
32749;DHT22;19119;52.474;13.710;2023-07-09T00:09:31;18.50;95.50
32749;DHT22;19119;52.474;13.710;2023-07-09T00:11:57;18.50;96.00
32749;DHT22;19119;52.474;13.710;2023-07-09T00:14:23;18.50;96.10
32749;DHT22;19119;52.474;13.710;2023-07-09T00:16:49;18.40;96.20
32749;DHT22;19119;52.474;13.710;2023-07-09T00:19:17;18.40;96.20
32749;DHT22;19119;52.474;13.710;2023-07-09T00:21:44;18.30;96.10
32749;DHT22;19119;52.474;13.710;2023-07-09T00:24:14;18.20;96.20
32749;DHT22;19119;52.474;13.710;2023-07-09T00:26:40;18.20;96.40
32749;DHT22;19119;52.474;13.710;2023-07-09T00:29:12;18.10;96.50
32749;DHT22;19119;52.474;13.710;2023-07-09T00:31:39;18.00;96.30
32749;DHT22;19119;52.474;13.710;2023-07-09T00:34:10;18.00;96.50
32749;DHT22;19119;52.474;13.710;2023-07-09T00:36:37;17.90;96.60
32749;DHT22;19119;52.474;13.710;2023-07-09T00:39:03;17.80;97.30
32749;DHT22;19119;52.474;13.710;2023-07-09T00:41:37;17.80;97.20
32749;DHT22;19119;52.474;13.710;2023-07-09T00:44:26;17.70;97.20
32749;DHT22;19119;52.474;13.710;2023-07-09T00:49:32;17.50;97.90
32749;DHT22;19119;52.474;13.710;2023-07-09T00:52:02;17.60;97.10
32749;DHT22;19119;52.474;13.710;2023-07-09T00:54:41;17.60;97.50
32749;DHT22;19119;52.474;13.710;2023-07-09T00:57:13;17.60;97.50
32749;DHT22;19119;52.474;13.710;2023-07-09T00:59:47;17.60;97.60
32749;DHT22;19119;52.474;13.710;2023-07-09T01:02:14;17.50;97.60
32749;DHT22;19119;52.474;13.710;2023-07-09T01:04:40;17.40;98.30
32749;DHT22;19119;52.474;13.710;2023-07-09T01:07:06;17.40;97.70
32749;DHT22;19119;52.474;13.710;2023-07-09T01:09:32;17.40;98.10
32749;DHT22;19119;52.474;13.710;2023-07-09T01:12:03;17.30;98.60
32749;DHT22;19119;52.474;13.710;2023-07-09T01:14:31;17.20;99.00
32749;DHT22;19119;52.474;13.710;2023-07-09T01:17:01;17.20;98.20
32749;DHT22;19119;52.474;13.710;2023-07-09T01:19:30;17.30;98.20
32749;DHT22;19119;52.474;13.710;2023-07-09T01:21:56;17.30;98.30
32749;DHT22;19119;52.474;13.710;2023-07-09T01:27:11;17.20;98.80
32749;DHT22;19119;52.474;13.710;2023-07-09T01:29:37;17.20;99.20
32749;DHT22;19119;52.474;13.710;2023-07-09T01:32:03;17.20;98.90
32749;DHT22;19119;52.474;13.710;2023-07-09T01:34:29;17.10;98.90
32749;DHT22;19119;52.474;13.710;2023-07-09T01:36:56;17.10;99.10
32749;DHT22;19119;52.474;13.710;2023-07-09T01:39:21;17.00;99.70
32749;DHT22;19119;52.474;13.710;2023-07-09T01:41:47;17.00;99.20
32749;DHT22;19119;52.474;13.710;2023-07-09T01:44:14;17.00;99.20
32749;DHT22;19119;52.474;13.710;2023-07-09T01:46:39;16.90;99.40
32749;DHT22;19119;52.474;13.710;2023-07-09T01:49:07;17.00;99.80
32749;DHT22;19119;52.474;13.710;2023-07-09T01:51:34;16.90;99.90
32749;DHT22;19119;52.474;13.710;2023-07-09T01:54:01;16.90;99.80
32749;DHT22;19119;52.474;13.710;2023-07-09T01:56:27;16.90;99.90
32749;DHT22;19119;52.474;13.710;2023-07-09T01:58:52;16.90;99.90
32749;DHT22;19119;52.474;13.710;2023-07-09T02:01:18;16.80;99.80
32749;DHT22;19119;52.474;13.710;2023-07-09T02:03:45;16.80;99.80
32749;DHT22;19119;52.474;13.710;2023-07-09T02:06:11;16.70;99.90
32749;DHT22;19119;52.474;13.710;2023-07-09T02:08:38;16.70;99.90
32749;DHT22;19119;52.474;13.710;2023-07-09T02:11:04;16.50;99.90
32749;DHT22;19119;52.474;13.710;2023-07-09T02:13:30;16.50;99.90
32749;DHT22;19119;52.474;13.710;2023-07-09T02:15:55;16.50;99.90
32749;DHT22;19119;52.474;13.710;2023-07-09T02:18:21;16.50;99.90
32749;DHT22;19119;52.474;13.710;2023-07-09T02:20:46;16.50;99.90
32749;DHT22;19119;52.474;13.710;2023-07-09T02:23:12;16.40;99.90
32749;DHT22;19119;52.474;13.710;2023-07-09T02:25:37;16.40;99.90
32749;DHT22;19119;52.474;13.710;2023-07-09T02:28:03;16.40;99.90
32749;DHT22;19119;52.474;13.710;2023-07-09T02:30:29;16.40;99.90
32749;DHT22;19119;52.474;13.710;2023-07-09T02:32:55;16.30;99.90
32749;DHT22;19119;52.474;13.710;2023-07-09T02:35:21;16.20;99.90
32749;DHT22;19119;52.474;13.710;2023-07-09T02:37:47;16.10;99.90
32749;DHT22;19119;52.474;13.710;2023-07-09T02:40:15;16.20;99.90
32749;DHT22;19119;52.474;13.710;2023-07-09T02:42:41;16.20;99.90
32749;DHT22;19119;52.474;13.710;2023-07-09T02:45:07;16.10;99.90
32749;DHT22;19119;52.474;13.710;2023-07-09T02:47:33;16.10;99.90
32749;DHT22;19119;52.474;13.710;2023-07-09T02:49:58;16.10;99.90
32749;DHT22;19119;52.474;13.710;2023-07-09T02:52:24;16.00;99.90
32749;DHT22;19119;52.474;13.710;2023-07-09T02:54:49;16.00;99.90
32749;DHT22;19119;52.474;13.710;2023-07-09T02:57:15;16.00;99.90
32749;DHT22;19119;52.474;13.710;2023-07-09T02:59:41;16.00;99.90
32749;DHT22;19119;52.474;13.710;2023-07-09T03:02:07;16.00;99.90
32749;DHT22;19119;52.474;13.710;2023-07-09T03:04:33;16.00;99.90
32749;DHT22;19119;52.474;13.710;2023-07-09T03:06:58;16.00;99.90
32749;DHT22;19119;52.474;13.710;2023-07-09T03:09:28;16.00;99.90
32749;DHT22;19119;52.474;13.710;2023-07-09T03:11:54;16.00;99.90
32749;DHT22;19119;52.474;13.710;2023-07-09T03:14:19;15.90;99.90
32749;DHT22;19119;52.474;13.710;2023-07-09T03:16:45;15.90;99.90
32749;DHT22;19119;52.474;13.710;2023-07-09T03:19:11;15.90;99.90
32749;DHT22;19119;52.474;13.710;2023-07-09T03:21:36;15.90;99.90
32749;DHT22;19119;52.474;13.710;2023-07-09T03:24:02;15.90;99.90
32749;DHT22;19119;52.474;13.710;2023-07-09T03:26:28;15.90;99.90
32749;DHT22;19119;52.474;13.710;2023-07-09T03:28:54;15.90;99.90
32749;DHT22;19119;52.474;13.710;2023-07-09T03:31:21;15.90;99.90
32749;DHT22;19119;52.474;13.710;2023-07-09T03:33:47;15.90;99.90
32749;DHT22;19119;52.474;13.710;2023-07-09T03:36:13;16.00;99.90
32749;DHT22;19119;52.474;13.710;2023-07-09T03:38:39;15.90;99.90
32749;DHT22;19119;52.474;13.710;2023-07-09T03:41:04;16.00;99.90
32749;DHT22;19119;52.474;13.710;2023-07-09T03:43:30;16.00;99.90
32749;DHT22;19119;52.474;13.710;2023-07-09T03:45:56;16.00;99.90
32749;DHT22;19119;52.474;13.710;2023-07-09T03:48:21;16.10;99.90
32749;DHT22;19119;52.474;13.710;2023-07-09T03:50:48;16.10;99.90
32749;DHT22;19119;52.474;13.710;2023-07-09T03:53:14;16.20;99.90
32749;DHT22;19119;52.474;13.710;2023-07-09T03:55:40;16.20;99.90
32749;DHT22;19119;52.474;13.710;2023-07-09T03:58:06;16.30;99.90
32749;DHT22;19119;52.474;13.710;2023-07-09T04:00:33;16.30;99.90
32749;DHT22;19119;52.474;13.710;2023-07-09T04:02:59;16.40;99.90
32749;DHT22;19119;52.474;13.710;2023-07-09T04:05:25;16.40;99.90
32749;DHT22;19119;52.474;13.710;2023-07-09T04:07:51;16.50;99.90
32749;DHT22;19119;52.474;13.710;2023-07-09T04:10:17;16.60;99.90
32749;DHT22;19119;52.474;13.710;2023-07-09T04:12:42;16.70;99.90
32749;DHT22;19119;52.474;13.710;2023-07-09T04:15:09;16.70;99.90
32749;DHT22;19119;52.474;13.710;2023-07-09T04:17:35;16.70;99.90
32749;DHT22;19119;52.474;13.710;2023-07-09T04:20:02;16.80;99.90
32749;DHT22;19119;52.474;13.710;2023-07-09T04:22:31;17.20;99.90
32749;DHT22;19119;52.474;13.710;2023-07-09T04:24:57;17.60;99.90
32749;DHT22;19119;52.474;13.710;2023-07-09T04:27:23;18.00;99.90
32749;DHT22;19119;52.474;13.710;2023-07-09T04:29:52;18.60;99.90
32749;DHT22;19119;52.474;13.710;2023-07-09T04:32:18;19.20;99.90
32749;DHT22;19119;52.474;13.710;2023-07-09T04:34:44;19.60;99.90
32749;DHT22;19119;52.474;13.710;2023-07-09T04:37:10;20.10;99.60
32749;DHT22;19119;52.474;13.710;2023-07-09T04:39:37;20.50;98.60
32749;DHT22;19119;52.474;13.710;2023-07-09T04:42:03;20.80;98.40
32749;DHT22;19119;52.474;13.710;2023-07-09T04:44:29;21.20;98.00
32749;DHT22;19119;52.474;13.710;2023-07-09T04:46:55;21.60;97.70
32749;DHT22;19119;52.474;13.710;2023-07-09T04:49:20;21.90;97.60
32749;DHT22;19119;52.474;13.710;2023-07-09T04:51:46;21.90;96.40
32749;DHT22;19119;52.474;13.710;2023-07-09T04:54:11;22.10;97.00
32749;DHT22;19119;52.474;13.710;2023-07-09T04:56:39;22.20;96.60
32749;DHT22;19119;52.474;13.710;2023-07-09T04:59:04;22.20;95.60
32749;DHT22;19119;52.474;13.710;2023-07-09T05:01:30;22.30;96.00
32749;DHT22;19119;52.474;13.710;2023-07-09T05:03:55;22.50;95.80
32749;DHT22;19119;52.474;13.710;2023-07-09T05:06:21;22.60;95.50
32749;DHT22;19119;52.474;13.710;2023-07-09T05:08:47;22.70;96.10
32749;DHT22;19119;52.474;13.710;2023-07-09T05:11:14;22.90;95.20
32749;DHT22;19119;52.474;13.710;2023-07-09T05:13:40;23.10;95.90
32749;DHT22;19119;52.474;13.710;2023-07-09T05:16:05;23.20;95.20
32749;DHT22;19119;52.474;13.710;2023-07-09T05:18:31;23.10;94.80
32749;DHT22;19119;52.474;13.710;2023-07-09T05:20:57;22.90;94.80
32749;DHT22;19119;52.474;13.710;2023-07-09T05:23:24;22.90;94.90
32749;DHT22;19119;52.474;13.710;2023-07-09T05:25:56;23.10;94.70
32749;DHT22;19119;52.474;13.710;2023-07-09T05:28:21;23.00;94.60
32749;DHT22;19119;52.474;13.710;2023-07-09T05:30:47;23.30;94.70
32749;DHT22;19119;52.474;13.710;2023-07-09T05:33:13;23.60;94.60
32749;DHT22;19119;52.474;13.710;2023-07-09T05:35:38;23.50;93.60
32749;DHT22;19119;52.474;13.710;2023-07-09T05:38:04;23.70;93.80
32749;DHT22;19119;52.474;13.710;2023-07-09T05:40:29;24.00;93.90
32749;DHT22;19119;52.474;13.710;2023-07-09T05:42:55;24.10;93.70
32749;DHT22;19119;52.474;13.710;2023-07-09T05:45:20;24.00;93.50
32749;DHT22;19119;52.474;13.710;2023-07-09T05:47:46;24.10;93.30
32749;DHT22;19119;52.474;13.710;2023-07-09T05:50:12;24.30;93.30
32749;DHT22;19119;52.474;13.710;2023-07-09T05:52:37;24.50;93.00
32749;DHT22;19119;52.474;13.710;2023-07-09T05:55:03;24.20;92.90
32749;DHT22;19119;52.474;13.710;2023-07-09T05:57:29;24.30;92.80
32749;DHT22;19119;52.474;13.710;2023-07-09T05:59:54;24.60;93.40
32749;DHT22;19119;52.474;13.710;2023-07-09T06:02:20;24.70;92.40
32749;DHT22;19119;52.474;13.710;2023-07-09T06:04:47;24.90;92.40
32749;DHT22;19119;52.474;13.710;2023-07-09T06:07:15;25.10;92.90
32749;DHT22;19119;52.474;13.710;2023-07-09T06:09:41;25.30;93.20
32749;DHT22;19119;52.474;13.710;2023-07-09T06:12:07;25.20;92.30
32749;DHT22;19119;52.474;13.710;2023-07-09T06:14:33;25.30;91.40
32749;DHT22;19119;52.474;13.710;2023-07-09T06:16:59;25.40;92.70
32749;DHT22;19119;52.474;13.710;2023-07-09T06:19:26;25.60;91.60
32749;DHT22;19119;52.474;13.710;2023-07-09T06:21:51;25.70;91.80
32749;DHT22;19119;52.474;13.710;2023-07-09T06:24:17;25.90;91.90
32749;DHT22;19119;52.474;13.710;2023-07-09T06:26:43;26.00;91.40
32749;DHT22;19119;52.474;13.710;2023-07-09T06:29:09;25.90;91.70
32749;DHT22;19119;52.474;13.710;2023-07-09T06:31:34;25.90;91.70
32749;DHT22;19119;52.474;13.710;2023-07-09T06:34:01;26.20;92.90
32749;DHT22;19119;52.474;13.710;2023-07-09T06:36:27;26.20;92.20
32749;DHT22;19119;52.474;13.710;2023-07-09T06:38:52;26.30;92.10
32749;DHT22;19119;52.474;13.710;2023-07-09T06:41:18;26.30;92.10
32749;DHT22;19119;52.474;13.710;2023-07-09T06:43:44;26.50;92.60
32749;DHT22;19119;52.474;13.710;2023-07-09T06:46:12;26.70;92.30
32749;DHT22;19119;52.474;13.710;2023-07-09T06:48:38;27.00;92.20
32749;DHT22;19119;52.474;13.710;2023-07-09T06:51:04;26.80;92.30
32749;DHT22;19119;52.474;13.710;2023-07-09T06:53:30;26.80;92.00
32749;DHT22;19119;52.474;13.710;2023-07-09T06:55:56;26.80;92.00
32749;DHT22;19119;52.474;13.710;2023-07-09T06:58:26;26.70;91.40
32749;DHT22;19119;52.474;13.710;2023-07-09T07:00:54;26.70;92.10
32749;DHT22;19119;52.474;13.710;2023-07-09T07:03:21;27.20;92.60
32749;DHT22;19119;52.474;13.710;2023-07-09T07:05:49;27.20;92.40
32749;DHT22;19119;52.474;13.710;2023-07-09T07:08:17;27.20;91.00
32749;DHT22;19119;52.474;13.710;2023-07-09T07:10:44;27.50;91.70
32749;DHT22;19119;52.474;13.710;2023-07-09T07:13:10;27.40;92.10
32749;DHT22;19119;52.474;13.710;2023-07-09T07:15:39;27.30;91.80
32749;DHT22;19119;52.474;13.710;2023-07-09T07:18:06;27.60;91.60
32749;DHT22;19119;52.474;13.710;2023-07-09T07:20:32;27.70;92.30
32749;DHT22;19119;52.474;13.710;2023-07-09T07:22:58;27.80;91.30
32749;DHT22;19119;52.474;13.710;2023-07-09T07:25:24;27.80;91.00
32749;DHT22;19119;52.474;13.710;2023-07-09T07:27:50;27.90;90.60
32749;DHT22;19119;52.474;13.710;2023-07-09T07:30:16;27.70;90.70
32749;DHT22;19119;52.474;13.710;2023-07-09T07:32:44;27.90;91.40
32749;DHT22;19119;52.474;13.710;2023-07-09T07:35:10;28.10;91.20
32749;DHT22;19119;52.474;13.710;2023-07-09T07:37:36;28.30;92.20
32749;DHT22;19119;52.474;13.710;2023-07-09T07:40:01;28.30;90.50
32749;DHT22;19119;52.474;13.710;2023-07-09T07:42:27;28.30;91.30
32749;DHT22;19119;52.474;13.710;2023-07-09T07:44:53;28.30;90.70
32749;DHT22;19119;52.474;13.710;2023-07-09T07:47:19;28.40;91.40
32749;DHT22;19119;52.474;13.710;2023-07-09T07:49:44;28.50;91.70
32749;DHT22;19119;52.474;13.710;2023-07-09T07:52:10;28.70;91.60
32749;DHT22;19119;52.474;13.710;2023-07-09T07:54:36;28.60;91.10
32749;DHT22;19119;52.474;13.710;2023-07-09T07:57:03;28.60;91.30
32749;DHT22;19119;52.474;13.710;2023-07-09T07:59:28;28.90;90.30
32749;DHT22;19119;52.474;13.710;2023-07-09T08:01:54;28.40;90.70
32749;DHT22;19119;52.474;13.710;2023-07-09T08:04:20;28.60;91.00
32749;DHT22;19119;52.474;13.710;2023-07-09T08:06:45;29.00;91.50
32749;DHT22;19119;52.474;13.710;2023-07-09T08:09:11;29.20;90.90
32749;DHT22;19119;52.474;13.710;2023-07-09T08:11:37;28.90;91.30
32749;DHT22;19119;52.474;13.710;2023-07-09T08:14:02;29.10;90.80
32749;DHT22;19119;52.474;13.710;2023-07-09T08:16:28;29.20;90.30
32749;DHT22;19119;52.474;13.710;2023-07-09T08:18:54;29.40;90.10
32749;DHT22;19119;52.474;13.710;2023-07-09T08:21:20;29.30;90.40
32749;DHT22;19119;52.474;13.710;2023-07-09T08:23:45;29.50;90.50
32749;DHT22;19119;52.474;13.710;2023-07-09T08:26:11;29.40;91.00
32749;DHT22;19119;52.474;13.710;2023-07-09T08:28:37;29.90;90.60
32749;DHT22;19119;52.474;13.710;2023-07-09T08:31:03;29.00;89.60
32749;DHT22;19119;52.474;13.710;2023-07-09T08:33:29;29.70;90.30
32749;DHT22;19119;52.474;13.710;2023-07-09T08:35:55;29.90;90.00
32749;DHT22;19119;52.474;13.710;2023-07-09T08:38:21;30.20;90.30
32749;DHT22;19119;52.474;13.710;2023-07-09T08:41:01;30.30;89.70
32749;DHT22;19119;52.474;13.710;2023-07-09T08:43:32;30.40;88.40
32749;DHT22;19119;52.474;13.710;2023-07-09T08:46:06;30.60;88.90
32749;DHT22;19119;52.474;13.710;2023-07-09T08:48:35;30.90;87.40
32749;DHT22;19119;52.474;13.710;2023-07-09T08:51:20;31.00;87.70
32749;DHT22;19119;52.474;13.710;2023-07-09T08:56:13;31.40;85.20
32749;DHT22;19119;52.474;13.710;2023-07-09T08:58:39;31.30;83.30
32749;DHT22;19119;52.474;13.710;2023-07-09T09:01:23;31.40;82.60
32749;DHT22;19119;52.474;13.710;2023-07-09T09:03:52;30.80;83.90
32749;DHT22;19119;52.474;13.710;2023-07-09T09:06:30;31.00;81.20
32749;DHT22;19119;52.474;13.710;2023-07-09T09:09:18;31.50;83.50
32749;DHT22;19119;52.474;13.710;2023-07-09T09:14:39;31.70;83.10
32749;DHT22;19119;52.474;13.710;2023-07-09T09:17:15;31.70;83.20
32749;DHT22;19119;52.474;13.710;2023-07-09T09:19:56;31.50;83.20
32749;DHT22;19119;52.474;13.710;2023-07-09T09:25:51;31.90;86.30
32749;DHT22;19119;52.474;13.710;2023-07-09T09:28:07;31.80;80.70
32749;DHT22;19119;52.474;13.710;2023-07-09T09:30:33;32.20;80.20
32749;DHT22;19119;52.474;13.710;2023-07-09T09:33:01;31.90;81.20
32749;DHT22;19119;52.474;13.710;2023-07-09T09:35:34;31.70;83.00
32749;DHT22;19119;52.474;13.710;2023-07-09T09:38:01;31.80;83.50
32749;DHT22;19119;52.474;13.710;2023-07-09T09:40:29;32.30;81.10
32749;DHT22;19119;52.474;13.710;2023-07-09T09:42:58;32.00;80.30
32749;DHT22;19119;52.474;13.710;2023-07-09T09:45:31;32.20;82.40
32749;DHT22;19119;52.474;13.710;2023-07-09T09:48:00;32.20;83.10
32749;DHT22;19119;52.474;13.710;2023-07-09T09:50:30;31.90;80.40
32749;DHT22;19119;52.474;13.710;2023-07-09T09:52:57;32.30;78.50
32749;DHT22;19119;52.474;13.710;2023-07-09T09:55:27;32.20;79.90
32749;DHT22;19119;52.474;13.710;2023-07-09T09:57:54;32.60;79.20
32749;DHT22;19119;52.474;13.710;2023-07-09T10:00:25;32.50;77.70
32749;DHT22;19119;52.474;13.710;2023-07-09T10:02:58;32.40;78.30
32749;DHT22;19119;52.474;13.710;2023-07-09T10:05:32;32.30;77.80
32749;DHT22;19119;52.474;13.710;2023-07-09T10:11:18;32.90;77.40
32749;DHT22;19119;52.474;13.710;2023-07-09T10:13:47;32.90;77.10
32749;DHT22;19119;52.474;13.710;2023-07-09T10:16:21;32.70;77.50
32749;DHT22;19119;52.474;13.710;2023-07-09T10:18:56;32.90;78.10
32749;DHT22;19119;52.474;13.710;2023-07-09T10:21:39;32.40;76.30
32749;DHT22;19119;52.474;13.710;2023-07-09T10:24:18;32.30;78.20
32749;DHT22;19119;52.474;13.710;2023-07-09T10:26:53;32.80;78.70
32749;DHT22;19119;52.474;13.710;2023-07-09T10:29:44;32.80;76.70
32749;DHT22;19119;52.474;13.710;2023-07-09T10:32:26;32.90;77.20
32749;DHT22;19119;52.474;13.710;2023-07-09T10:35:32;33.00;78.80
32749;DHT22;19119;52.474;13.710;2023-07-09T10:38:29;33.50;77.80
32749;DHT22;19119;52.474;13.710;2023-07-09T10:40:59;33.50;76.70
32749;DHT22;19119;52.474;13.710;2023-07-09T10:43:49;33.40;76.90
32749;DHT22;19119;52.474;13.710;2023-07-09T10:46:21;33.40;78.10
32749;DHT22;19119;52.474;13.710;2023-07-09T10:48:50;33.90;77.60
32749;DHT22;19119;52.474;13.710;2023-07-09T10:56:56;33.30;79.40
32749;DHT22;19119;52.474;13.710;2023-07-09T10:59:33;33.50;78.60
32749;DHT22;19119;52.474;13.710;2023-07-09T11:02:48;33.30;77.80
32749;DHT22;19119;52.474;13.710;2023-07-09T11:05:06;33.80;76.20
32749;DHT22;19119;52.474;13.710;2023-07-09T11:08:02;33.80;77.00
32749;DHT22;19119;52.474;13.710;2023-07-09T11:10:44;34.00;75.90
32749;DHT22;19119;52.474;13.710;2023-07-09T11:13:13;33.90;77.00
32749;DHT22;19119;52.474;13.710;2023-07-09T11:15:43;33.90;74.90
32749;DHT22;19119;52.474;13.710;2023-07-09T11:18:16;33.80;76.50
32749;DHT22;19119;52.474;13.710;2023-07-09T11:20:45;33.80;76.00
32749;DHT22;19119;52.474;13.710;2023-07-09T11:23:22;33.70;77.90
32749;DHT22;19119;52.474;13.710;2023-07-09T11:26:01;34.00;76.90
32749;DHT22;19119;52.474;13.710;2023-07-09T11:28:39;33.90;74.30
32749;DHT22;19119;52.474;13.710;2023-07-09T11:33:56;33.90;75.40
32749;DHT22;19119;52.474;13.710;2023-07-09T11:36:26;33.90;75.20
32749;DHT22;19119;52.474;13.710;2023-07-09T11:38:53;34.10;77.00
32749;DHT22;19119;52.474;13.710;2023-07-09T11:44:17;33.90;74.40
32749;DHT22;19119;52.474;13.710;2023-07-09T11:46:52;33.90;75.00
32749;DHT22;19119;52.474;13.710;2023-07-09T11:49:22;33.90;74.60
32749;DHT22;19119;52.474;13.710;2023-07-09T11:51:53;34.00;76.60
32749;DHT22;19119;52.474;13.710;2023-07-09T11:54:19;34.00;74.30
32749;DHT22;19119;52.474;13.710;2023-07-09T11:56:59;33.90;75.40
32749;DHT22;19119;52.474;13.710;2023-07-09T11:59:25;34.20;76.10
32749;DHT22;19119;52.474;13.710;2023-07-09T12:01:52;34.30;75.30
32749;DHT22;19119;52.474;13.710;2023-07-09T12:04:22;34.40;76.30
32749;DHT22;19119;52.474;13.710;2023-07-09T12:06:48;34.00;74.90
32749;DHT22;19119;52.474;13.710;2023-07-09T12:09:20;33.80;73.70
32749;DHT22;19119;52.474;13.710;2023-07-09T12:11:48;34.10;73.90
32749;DHT22;19119;52.474;13.710;2023-07-09T12:14:20;34.20;73.20
32749;DHT22;19119;52.474;13.710;2023-07-09T12:16:48;34.10;73.70
32749;DHT22;19119;52.474;13.710;2023-07-09T12:19:17;34.10;74.20
32749;DHT22;19119;52.474;13.710;2023-07-09T12:21:45;34.10;73.50
32749;DHT22;19119;52.474;13.710;2023-07-09T12:24:31;34.00;73.70
32749;DHT22;19119;52.474;13.710;2023-07-09T12:27:02;34.40;74.40
32749;DHT22;19119;52.474;13.710;2023-07-09T12:29:30;34.60;74.60
32749;DHT22;19119;52.474;13.710;2023-07-09T12:31:57;34.40;73.20
32749;DHT22;19119;52.474;13.710;2023-07-09T12:34:24;34.40;73.10
32749;DHT22;19119;52.474;13.710;2023-07-09T12:36:52;34.30;73.40
32749;DHT22;19119;52.474;13.710;2023-07-09T12:39:24;34.30;73.90
32749;DHT22;19119;52.474;13.710;2023-07-09T12:41:49;34.30;73.60
32749;DHT22;19119;52.474;13.710;2023-07-09T12:44:20;34.50;73.40
32749;DHT22;19119;52.474;13.710;2023-07-09T12:46:47;34.40;72.80
32749;DHT22;19119;52.474;13.710;2023-07-09T12:49:25;34.70;75.90
32749;DHT22;19119;52.474;13.710;2023-07-09T12:51:57;34.80;73.40
32749;DHT22;19119;52.474;13.710;2023-07-09T12:54:23;34.80;72.70
32749;DHT22;19119;52.474;13.710;2023-07-09T12:56:53;35.10;73.10
32749;DHT22;19119;52.474;13.710;2023-07-09T12:59:24;34.70;71.90
32749;DHT22;19119;52.474;13.710;2023-07-09T13:04:43;35.30;74.00
32749;DHT22;19119;52.474;13.710;2023-07-09T13:09:51;34.90;71.50
32749;DHT22;19119;52.474;13.710;2023-07-09T13:12:17;34.70;72.20
32749;DHT22;19119;52.474;13.710;2023-07-09T13:14:52;34.90;72.70
32749;DHT22;19119;52.474;13.710;2023-07-09T13:17:18;34.80;72.30
32749;DHT22;19119;52.474;13.710;2023-07-09T13:19:44;34.80;75.20
32749;DHT22;19119;52.474;13.710;2023-07-09T13:22:14;34.90;71.80
32749;DHT22;19119;52.474;13.710;2023-07-09T13:24:40;34.80;73.90
32749;DHT22;19119;52.474;13.710;2023-07-09T13:27:11;34.70;73.40
32749;DHT22;19119;52.474;13.710;2023-07-09T13:29:36;34.20;72.10
32749;DHT22;19119;52.474;13.710;2023-07-09T13:32:02;34.10;71.90
32749;DHT22;19119;52.474;13.710;2023-07-09T13:34:30;34.20;72.10
32749;DHT22;19119;52.474;13.710;2023-07-09T13:36:58;34.10;72.30
32749;DHT22;19119;52.474;13.710;2023-07-09T13:39:24;34.50;73.40
32749;DHT22;19119;52.474;13.710;2023-07-09T13:41:51;34.60;73.40
32749;DHT22;19119;52.474;13.710;2023-07-09T13:44:24;34.70;74.10
32749;DHT22;19119;52.474;13.710;2023-07-09T13:46:50;34.60;72.00
32749;DHT22;19119;52.474;13.710;2023-07-09T13:49:19;34.30;73.30
32749;DHT22;19119;52.474;13.710;2023-07-09T13:51:47;34.10;72.20
32749;DHT22;19119;52.474;13.710;2023-07-09T13:54:21;34.20;72.00
32749;DHT22;19119;52.474;13.710;2023-07-09T13:56:48;34.80;72.30
32749;DHT22;19119;52.474;13.710;2023-07-09T13:59:21;34.70;74.00
32749;DHT22;19119;52.474;13.710;2023-07-09T14:01:47;34.20;72.40
32749;DHT22;19119;52.474;13.710;2023-07-09T14:04:15;33.70;72.90
32749;DHT22;19119;52.474;13.710;2023-07-09T14:06:42;34.20;73.20
32749;DHT22;19119;52.474;13.710;2023-07-09T14:09:10;34.50;74.90
32749;DHT22;19119;52.474;13.710;2023-07-09T14:11:46;34.40;70.40
32749;DHT22;19119;52.474;13.710;2023-07-09T14:16:44;34.30;72.00
32749;DHT22;19119;52.474;13.710;2023-07-09T14:19:14;34.00;71.10
32749;DHT22;19119;52.474;13.710;2023-07-09T14:21:40;34.30;72.60
32749;DHT22;19119;52.474;13.710;2023-07-09T14:24:27;34.60;71.60
32749;DHT22;19119;52.474;13.710;2023-07-09T14:26:57;34.90;72.20
32749;DHT22;19119;52.474;13.710;2023-07-09T14:29:24;35.20;72.50
32749;DHT22;19119;52.474;13.710;2023-07-09T14:31:50;35.60;71.90
32749;DHT22;19119;52.474;13.710;2023-07-09T14:34:21;35.50;71.80
32749;DHT22;19119;52.474;13.710;2023-07-09T14:36:48;35.40;71.90
32749;DHT22;19119;52.474;13.710;2023-07-09T14:39:14;35.40;70.70
32749;DHT22;19119;52.474;13.710;2023-07-09T14:41:40;35.30;72.70
32749;DHT22;19119;52.474;13.710;2023-07-09T14:46:48;35.00;71.10
32749;DHT22;19119;52.474;13.710;2023-07-09T14:49:15;34.70;72.20
32749;DHT22;19119;52.474;13.710;2023-07-09T14:51:40;34.50;72.60
32749;DHT22;19119;52.474;13.710;2023-07-09T14:54:21;34.40;70.10
32749;DHT22;19119;52.474;13.710;2023-07-09T14:56:48;34.10;71.30
32749;DHT22;19119;52.474;13.710;2023-07-09T14:59:14;34.10;72.80
32749;DHT22;19119;52.474;13.710;2023-07-09T15:01:40;34.10;71.50
32749;DHT22;19119;52.474;13.710;2023-07-09T15:06:54;34.00;70.40
32749;DHT22;19119;52.474;13.710;2023-07-09T15:09:22;33.80;71.90
32749;DHT22;19119;52.474;13.710;2023-07-09T15:11:51;34.20;72.10
32749;DHT22;19119;52.474;13.710;2023-07-09T15:14:17;34.00;73.20
32749;DHT22;19119;52.474;13.710;2023-07-09T15:16:42;34.00;71.80
32749;DHT22;19119;52.474;13.710;2023-07-09T15:19:16;34.20;73.10
32749;DHT22;19119;52.474;13.710;2023-07-09T15:21:42;34.00;72.10
32749;DHT22;19119;52.474;13.710;2023-07-09T15:24:30;33.90;72.20
32749;DHT22;19119;52.474;13.710;2023-07-09T15:26:56;33.90;74.00
32749;DHT22;19119;52.474;13.710;2023-07-09T15:29:23;34.00;72.00
32749;DHT22;19119;52.474;13.710;2023-07-09T15:31:49;34.00;71.40
32749;DHT22;19119;52.474;13.710;2023-07-09T15:34:15;34.00;72.40
32749;DHT22;19119;52.474;13.710;2023-07-09T15:36:49;33.80;70.90
32749;DHT22;19119;52.474;13.710;2023-07-09T15:39:16;33.60;71.80
32749;DHT22;19119;52.474;13.710;2023-07-09T15:41:42;33.60;72.90
32749;DHT22;19119;52.474;13.710;2023-07-09T15:44:14;33.40;73.20
32749;DHT22;19119;52.474;13.710;2023-07-09T15:46:51;33.60;70.40
32749;DHT22;19119;52.474;13.710;2023-07-09T15:49:18;33.70;72.00
32749;DHT22;19119;52.474;13.710;2023-07-09T15:51:43;33.60;72.70
32749;DHT22;19119;52.474;13.710;2023-07-09T15:54:20;33.50;70.20
32749;DHT22;19119;52.474;13.710;2023-07-09T15:56:47;33.50;72.00
32749;DHT22;19119;52.474;13.710;2023-07-09T15:59:32;33.10;71.10
32749;DHT22;19119;52.474;13.710;2023-07-09T16:01:59;33.40;72.40
32749;DHT22;19119;52.474;13.710;2023-07-09T16:04:25;33.60;71.80
32749;DHT22;19119;52.474;13.710;2023-07-09T16:06:51;33.30;71.60